sensor_id;sensor_type;location;lat;lon;timestamp;P1;durP1;ratioP1;P2;durP2;ratioP2
11034;SDS011;5571;48.110;-1.706;2024-01-15T00:01:55;63.37;;;37.53;;
11034;SDS011;5571;48.110;-1.706;2024-01-15T00:04:21;61.50;;;38.00;;
11034;SDS011;5571;48.110;-1.706;2024-01-15T00:06:46;64.73;;;38.10;;
11034;SDS011;5571;48.110;-1.706;2024-01-15T00:09:12;57.63;;;36.27;;
11034;SDS011;5571;48.110;-1.706;2024-01-15T00:11:37;56.70;;;35.47;;
11034;SDS011;5571;48.110;-1.706;2024-01-15T00:14:03;65.70;;;38.23;;
11034;SDS011;5571;48.110;-1.706;2024-01-15T00:16:28;57.43;;;36.60;;
11034;SDS011;5571;48.110;-1.706;2024-01-15T00:18:54;60.37;;;36.90;;
11034;SDS011;5571;48.110;-1.706;2024-01-15T00:21:20;57.20;;;36.97;;
11034;SDS011;5571;48.110;-1.706;2024-01-15T00:23:45;60.20;;;35.90;;
11034;SDS011;5571;48.110;-1.706;2024-01-15T00:26:11;59.93;;;37.13;;
11034;SDS011;5571;48.110;-1.706;2024-01-15T00:28:37;59.37;;;37.23;;
11034;SDS011;5571;48.110;-1.706;2024-01-15T00:31:03;60.70;;;37.50;;
11034;SDS011;5571;48.110;-1.706;2024-01-15T00:33:29;62.67;;;37.77;;
11034;SDS011;5571;48.110;-1.706;2024-01-15T00:35:55;60.87;;;37.67;;
11034;SDS011;5571;48.110;-1.706;2024-01-15T00:38:21;60.27;;;37.30;;
11034;SDS011;5571;48.110;-1.706;2024-01-15T00:40:46;58.90;;;36.07;;
11034;SDS011;5571;48.110;-1.706;2024-01-15T00:43:12;60.13;;;36.53;;
11034;SDS011;5571;48.110;-1.706;2024-01-15T00:45:38;64.17;;;38.70;;
11034;SDS011;5571;48.110;-1.706;2024-01-15T00:48:04;53.47;;;34.03;;
11034;SDS011;5571;48.110;-1.706;2024-01-15T00:50:29;57.40;;;35.13;;
11034;SDS011;5571;48.110;-1.706;2024-01-15T00:52:55;55.07;;;34.30;;
11034;SDS011;5571;48.110;-1.706;2024-01-15T00:55:21;61.80;;;36.40;;
11034;SDS011;5571;48.110;-1.706;2024-01-15T00:57:46;61.90;;;36.23;;
11034;SDS011;5571;48.110;-1.706;2024-01-15T01:00:12;62.60;;;36.50;;
11034;SDS011;5571;48.110;-1.706;2024-01-15T01:02:38;57.67;;;34.80;;
11034;SDS011;5571;48.110;-1.706;2024-01-15T01:05:04;59.33;;;34.87;;
11034;SDS011;5571;48.110;-1.706;2024-01-15T01:07:30;58.10;;;34.87;;
11034;SDS011;5571;48.110;-1.706;2024-01-15T01:09:55;61.07;;;36.77;;
11034;SDS011;5571;48.110;-1.706;2024-01-15T01:12:21;59.53;;;35.70;;
11034;SDS011;5571;48.110;-1.706;2024-01-15T01:14:46;61.63;;;36.90;;
11034;SDS011;5571;48.110;-1.706;2024-01-15T01:17:12;56.00;;;34.67;;
11034;SDS011;5571;48.110;-1.706;2024-01-15T01:19:38;58.20;;;35.53;;
11034;SDS011;5571;48.110;-1.706;2024-01-15T01:22:03;60.60;;;36.30;;
11034;SDS011;5571;48.110;-1.706;2024-01-15T01:24:29;57.90;;;35.70;;
11034;SDS011;5571;48.110;-1.706;2024-01-15T01:26:54;53.53;;;33.83;;
11034;SDS011;5571;48.110;-1.706;2024-01-15T01:29:20;51.40;;;33.53;;
11034;SDS011;5571;48.110;-1.706;2024-01-15T01:31:46;51.13;;;32.20;;
11034;SDS011;5571;48.110;-1.706;2024-01-15T01:34:15;50.57;;;32.10;;
11034;SDS011;5571;48.110;-1.706;2024-01-15T01:36:44;55.43;;;33.63;;
11034;SDS011;5571;48.110;-1.706;2024-01-15T01:39:10;51.97;;;32.73;;
11034;SDS011;5571;48.110;-1.706;2024-01-15T01:41:35;57.70;;;33.47;;
11034;SDS011;5571;48.110;-1.706;2024-01-15T01:44:01;49.40;;;31.60;;
11034;SDS011;5571;48.110;-1.706;2024-01-15T01:46:27;58.73;;;32.47;;
11034;SDS011;5571;48.110;-1.706;2024-01-15T01:48:53;52.33;;;32.30;;
11034;SDS011;5571;48.110;-1.706;2024-01-15T01:51:20;55.50;;;33.10;;
11034;SDS011;5571;48.110;-1.706;2024-01-15T01:53:47;51.47;;;31.17;;
11034;SDS011;5571;48.110;-1.706;2024-01-15T01:56:14;54.13;;;31.10;;
11034;SDS011;5571;48.110;-1.706;2024-01-15T01:58:40;52.23;;;31.03;;
11034;SDS011;5571;48.110;-1.706;2024-01-15T02:01:06;54.73;;;32.13;;
11034;SDS011;5571;48.110;-1.706;2024-01-15T02:03:32;53.67;;;31.90;;
11034;SDS011;5571;48.110;-1.706;2024-01-15T02:05:58;51.17;;;30.03;;
11034;SDS011;5571;48.110;-1.706;2024-01-15T02:08:25;51.67;;;30.83;;
11034;SDS011;5571;48.110;-1.706;2024-01-15T02:10:51;52.67;;;31.30;;
11034;SDS011;5571;48.110;-1.706;2024-01-15T02:13:17;53.87;;;31.63;;
11034;SDS011;5571;48.110;-1.706;2024-01-15T02:15:43;54.33;;;30.83;;
11034;SDS011;5571;48.110;-1.706;2024-01-15T02:18:09;57.00;;;32.80;;
11034;SDS011;5571;48.110;-1.706;2024-01-15T02:20:35;53.17;;;30.77;;
11034;SDS011;5571;48.110;-1.706;2024-01-15T02:23:13;52.23;;;31.93;;
11034;SDS011;5571;48.110;-1.706;2024-01-15T02:25:40;52.10;;;30.73;;
11034;SDS011;5571;48.110;-1.706;2024-01-15T02:28:09;52.13;;;31.23;;
11034;SDS011;5571;48.110;-1.706;2024-01-15T02:30:39;48.77;;;30.77;;
11034;SDS011;5571;48.110;-1.706;2024-01-15T02:33:06;50.23;;;31.93;;
11034;SDS011;5571;48.110;-1.706;2024-01-15T02:35:33;51.23;;;31.00;;
11034;SDS011;5571;48.110;-1.706;2024-01-15T02:37:59;71.00;;;39.47;;
11034;SDS011;5571;48.110;-1.706;2024-01-15T02:40:25;51.63;;;30.97;;
11034;SDS011;5571;48.110;-1.706;2024-01-15T02:42:50;51.63;;;32.23;;
11034;SDS011;5571;48.110;-1.706;2024-01-15T02:45:16;49.33;;;30.20;;
11034;SDS011;5571;48.110;-1.706;2024-01-15T02:47:42;51.17;;;29.93;;
11034;SDS011;5571;48.110;-1.706;2024-01-15T02:50:07;49.97;;;30.13;;
11034;SDS011;5571;48.110;-1.706;2024-01-15T02:52:33;46.87;;;29.43;;
11034;SDS011;5571;48.110;-1.706;2024-01-15T02:54:59;49.33;;;30.03;;
11034;SDS011;5571;48.110;-1.706;2024-01-15T02:57:24;50.17;;;30.20;;
11034;SDS011;5571;48.110;-1.706;2024-01-15T02:59:50;51.03;;;32.10;;
11034;SDS011;5571;48.110;-1.706;2024-01-15T03:02:16;52.73;;;31.73;;
11034;SDS011;5571;48.110;-1.706;2024-01-15T03:04:44;53.80;;;31.70;;
11034;SDS011;5571;48.110;-1.706;2024-01-15T03:07:10;45.40;;;28.90;;
11034;SDS011;5571;48.110;-1.706;2024-01-15T03:09:36;52.93;;;29.43;;
11034;SDS011;5571;48.110;-1.706;2024-01-15T03:12:01;48.60;;;29.90;;
11034;SDS011;5571;48.110;-1.706;2024-01-15T03:14:27;44.67;;;27.90;;
11034;SDS011;5571;48.110;-1.706;2024-01-15T03:16:53;46.30;;;28.27;;
11034;SDS011;5571;48.110;-1.706;2024-01-15T03:19:18;44.57;;;27.60;;
11034;SDS011;5571;48.110;-1.706;2024-01-15T03:21:44;48.00;;;29.00;;
11034;SDS011;5571;48.110;-1.706;2024-01-15T03:24:10;47.37;;;28.07;;
11034;SDS011;5571;48.110;-1.706;2024-01-15T03:26:35;41.17;;;26.93;;
11034;SDS011;5571;48.110;-1.706;2024-01-15T03:29:01;47.50;;;26.10;;
11034;SDS011;5571;48.110;-1.706;2024-01-15T03:31:27;40.50;;;25.63;;
11034;SDS011;5571;48.110;-1.706;2024-01-15T03:33:52;45.03;;;27.33;;
11034;SDS011;5571;48.110;-1.706;2024-01-15T03:36:18;42.37;;;26.37;;
11034;SDS011;5571;48.110;-1.706;2024-01-15T03:38:43;40.60;;;24.97;;
11034;SDS011;5571;48.110;-1.706;2024-01-15T03:41:09;43.97;;;25.43;;
11034;SDS011;5571;48.110;-1.706;2024-01-15T03:43:35;40.23;;;25.80;;
11034;SDS011;5571;48.110;-1.706;2024-01-15T03:46:00;40.87;;;25.00;;
11034;SDS011;5571;48.110;-1.706;2024-01-15T03:48:27;40.27;;;25.70;;
11034;SDS011;5571;48.110;-1.706;2024-01-15T03:50:52;38.77;;;24.50;;
11034;SDS011;5571;48.110;-1.706;2024-01-15T03:53:18;38.90;;;24.33;;
11034;SDS011;5571;48.110;-1.706;2024-01-15T03:55:44;37.77;;;23.47;;
11034;SDS011;5571;48.110;-1.706;2024-01-15T03:58:09;40.77;;;23.87;;
11034;SDS011;5571;48.110;-1.706;2024-01-15T04:00:35;39.03;;;24.10;;
11034;SDS011;5571;48.110;-1.706;2024-01-15T04:03:00;40.30;;;25.03;;
11034;SDS011;5571;48.110;-1.706;2024-01-15T04:05:26;39.70;;;25.10;;
11034;SDS011;5571;48.110;-1.706;2024-01-15T04:07:52;38.60;;;24.47;;
11034;SDS011;5571;48.110;-1.706;2024-01-15T04:10:17;35.13;;;22.83;;
11034;SDS011;5571;48.110;-1.706;2024-01-15T04:12:43;37.50;;;24.57;;
11034;SDS011;5571;48.110;-1.706;2024-01-15T04:15:11;40.73;;;24.80;;
11034;SDS011;5571;48.110;-1.706;2024-01-15T04:17:37;39.33;;;24.00;;
11034;SDS011;5571;48.110;-1.706;2024-01-15T04:20:03;42.77;;;25.30;;
11034;SDS011;5571;48.110;-1.706;2024-01-15T04:22:29;39.20;;;23.80;;
11034;SDS011;5571;48.110;-1.706;2024-01-15T04:24:55;41.50;;;26.63;;
11034;SDS011;5571;48.110;-1.706;2024-01-15T04:27:20;44.80;;;28.17;;
11034;SDS011;5571;48.110;-1.706;2024-01-15T04:29:46;39.47;;;24.87;;
11034;SDS011;5571;48.110;-1.706;2024-01-15T04:32:11;37.73;;;23.67;;
11034;SDS011;5571;48.110;-1.706;2024-01-15T04:34:37;37.97;;;23.30;;
11034;SDS011;5571;48.110;-1.706;2024-01-15T04:37:03;39.67;;;22.83;;
11034;SDS011;5571;48.110;-1.706;2024-01-15T04:39:29;32.57;;;22.63;;
11034;SDS011;5571;48.110;-1.706;2024-01-15T04:41:54;36.80;;;23.37;;
11034;SDS011;5571;48.110;-1.706;2024-01-15T04:44:20;39.57;;;23.53;;
11034;SDS011;5571;48.110;-1.706;2024-01-15T04:46:45;36.83;;;23.60;;
11034;SDS011;5571;48.110;-1.706;2024-01-15T04:49:11;39.00;;;23.43;;
11034;SDS011;5571;48.110;-1.706;2024-01-15T04:51:37;37.23;;;22.50;;
11034;SDS011;5571;48.110;-1.706;2024-01-15T04:54:03;34.30;;;22.67;;
11034;SDS011;5571;48.110;-1.706;2024-01-15T04:56:29;34.27;;;21.97;;
11034;SDS011;5571;48.110;-1.706;2024-01-15T04:58:54;34.60;;;21.70;;
11034;SDS011;5571;48.110;-1.706;2024-01-15T05:01:20;36.23;;;22.17;;
11034;SDS011;5571;48.110;-1.706;2024-01-15T05:03:46;34.67;;;21.70;;
11034;SDS011;5571;48.110;-1.706;2024-01-15T05:06:11;34.93;;;21.97;;
11034;SDS011;5571;48.110;-1.706;2024-01-15T05:08:37;32.83;;;21.77;;
11034;SDS011;5571;48.110;-1.706;2024-01-15T05:11:03;38.33;;;23.23;;
11034;SDS011;5571;48.110;-1.706;2024-01-15T05:13:28;35.37;;;22.03;;
11034;SDS011;5571;48.110;-1.706;2024-01-15T05:15:54;32.63;;;22.23;;
11034;SDS011;5571;48.110;-1.706;2024-01-15T05:18:20;35.70;;;21.83;;
11034;SDS011;5571;48.110;-1.706;2024-01-15T05:20:45;32.73;;;21.60;;
11034;SDS011;5571;48.110;-1.706;2024-01-15T05:23:11;32.50;;;22.13;;
11034;SDS011;5571;48.110;-1.706;2024-01-15T05:25:37;35.50;;;21.10;;
11034;SDS011;5571;48.110;-1.706;2024-01-15T05:28:02;33.07;;;21.23;;
11034;SDS011;5571;48.110;-1.706;2024-01-15T05:30:28;33.97;;;21.57;;
11034;SDS011;5571;48.110;-1.706;2024-01-15T05:32:54;33.80;;;21.13;;
11034;SDS011;5571;48.110;-1.706;2024-01-15T05:35:19;33.27;;;20.40;;
11034;SDS011;5571;48.110;-1.706;2024-01-15T05:37:45;33.27;;;20.77;;
11034;SDS011;5571;48.110;-1.706;2024-01-15T05:40:11;32.00;;;20.67;;
11034;SDS011;5571;48.110;-1.706;2024-01-15T05:42:38;29.40;;;19.73;;
11034;SDS011;5571;48.110;-1.706;2024-01-15T05:45:04;31.90;;;20.97;;
11034;SDS011;5571;48.110;-1.706;2024-01-15T05:47:30;34.23;;;20.80;;
11034;SDS011;5571;48.110;-1.706;2024-01-15T05:49:56;33.10;;;20.53;;
11034;SDS011;5571;48.110;-1.706;2024-01-15T05:52:23;32.67;;;20.43;;
11034;SDS011;5571;48.110;-1.706;2024-01-15T05:54:49;32.77;;;20.93;;
11034;SDS011;5571;48.110;-1.706;2024-01-15T05:57:15;31.77;;;20.70;;
11034;SDS011;5571;48.110;-1.706;2024-01-15T05:59:41;31.33;;;20.87;;
11034;SDS011;5571;48.110;-1.706;2024-01-15T06:02:08;31.17;;;20.23;;
11034;SDS011;5571;48.110;-1.706;2024-01-15T06:04:33;30.77;;;20.20;;
11034;SDS011;5571;48.110;-1.706;2024-01-15T06:06:59;28.80;;;19.70;;
11034;SDS011;5571;48.110;-1.706;2024-01-15T06:09:24;27.43;;;18.70;;
11034;SDS011;5571;48.110;-1.706;2024-01-15T06:11:50;29.40;;;19.00;;
11034;SDS011;5571;48.110;-1.706;2024-01-15T06:14:15;32.23;;;19.23;;
11034;SDS011;5571;48.110;-1.706;2024-01-15T06:16:41;35.03;;;20.67;;
11034;SDS011;5571;48.110;-1.706;2024-01-15T06:19:07;36.17;;;20.93;;
11034;SDS011;5571;48.110;-1.706;2024-01-15T06:21:33;34.90;;;21.80;;
11034;SDS011;5571;48.110;-1.706;2024-01-15T06:23:58;31.77;;;20.40;;
11034;SDS011;5571;48.110;-1.706;2024-01-15T06:26:24;31.63;;;20.47;;
11034;SDS011;5571;48.110;-1.706;2024-01-15T06:28:49;30.30;;;19.67;;
11034;SDS011;5571;48.110;-1.706;2024-01-15T06:31:15;31.37;;;20.73;;
11034;SDS011;5571;48.110;-1.706;2024-01-15T06:33:41;33.37;;;20.67;;
11034;SDS011;5571;48.110;-1.706;2024-01-15T06:36:07;29.07;;;19.63;;
11034;SDS011;5571;48.110;-1.706;2024-01-15T06:38:33;29.40;;;20.17;;
11034;SDS011;5571;48.110;-1.706;2024-01-15T06:40:59;31.00;;;19.93;;
11034;SDS011;5571;48.110;-1.706;2024-01-15T06:43:25;31.83;;;20.77;;
11034;SDS011;5571;48.110;-1.706;2024-01-15T06:45:50;32.93;;;21.27;;
11034;SDS011;5571;48.110;-1.706;2024-01-15T06:48:16;32.20;;;21.43;;
11034;SDS011;5571;48.110;-1.706;2024-01-15T06:50:42;33.03;;;21.13;;
11034;SDS011;5571;48.110;-1.706;2024-01-15T06:53:08;38.07;;;25.07;;
11034;SDS011;5571;48.110;-1.706;2024-01-15T06:55:33;39.43;;;25.50;;
11034;SDS011;5571;48.110;-1.706;2024-01-15T06:57:59;37.10;;;22.63;;
11034;SDS011;5571;48.110;-1.706;2024-01-15T07:00:25;38.43;;;23.10;;
11034;SDS011;5571;48.110;-1.706;2024-01-15T07:02:52;36.83;;;22.67;;
11034;SDS011;5571;48.110;-1.706;2024-01-15T07:05:18;38.43;;;22.90;;
11034;SDS011;5571;48.110;-1.706;2024-01-15T07:07:45;36.23;;;22.27;;
11034;SDS011;5571;48.110;-1.706;2024-01-15T07:10:10;35.90;;;21.90;;
11034;SDS011;5571;48.110;-1.706;2024-01-15T07:12:36;36.67;;;22.23;;
11034;SDS011;5571;48.110;-1.706;2024-01-15T07:15:02;35.60;;;20.67;;
11034;SDS011;5571;48.110;-1.706;2024-01-15T07:17:29;33.37;;;20.53;;
11034;SDS011;5571;48.110;-1.706;2024-01-15T07:19:56;32.67;;;20.73;;
11034;SDS011;5571;48.110;-1.706;2024-01-15T07:22:21;31.57;;;20.10;;
11034;SDS011;5571;48.110;-1.706;2024-01-15T07:24:47;28.33;;;19.33;;
11034;SDS011;5571;48.110;-1.706;2024-01-15T07:27:12;31.33;;;19.37;;
11034;SDS011;5571;48.110;-1.706;2024-01-15T07:29:38;28.37;;;19.60;;
11034;SDS011;5571;48.110;-1.706;2024-01-15T07:32:04;28.17;;;19.13;;
11034;SDS011;5571;48.110;-1.706;2024-01-15T07:34:30;29.57;;;19.77;;
11034;SDS011;5571;48.110;-1.706;2024-01-15T07:36:56;28.63;;;20.13;;
11034;SDS011;5571;48.110;-1.706;2024-01-15T07:39:22;29.27;;;19.67;;
11034;SDS011;5571;48.110;-1.706;2024-01-15T07:41:49;28.47;;;19.50;;
11034;SDS011;5571;48.110;-1.706;2024-01-15T07:44:15;30.97;;;20.53;;
11034;SDS011;5571;48.110;-1.706;2024-01-15T07:46:44;30.63;;;19.23;;
11034;SDS011;5571;48.110;-1.706;2024-01-15T07:49:10;33.03;;;20.30;;
11034;SDS011;5571;48.110;-1.706;2024-01-15T07:51:36;32.80;;;20.23;;
11034;SDS011;5571;48.110;-1.706;2024-01-15T07:54:02;26.37;;;17.83;;
11034;SDS011;5571;48.110;-1.706;2024-01-15T07:56:28;32.60;;;19.57;;
11034;SDS011;5571;48.110;-1.706;2024-01-15T07:58:54;29.50;;;19.20;;
11034;SDS011;5571;48.110;-1.706;2024-01-15T08:01:20;28.57;;;18.77;;
11034;SDS011;5571;48.110;-1.706;2024-01-15T08:03:46;33.10;;;19.90;;
11034;SDS011;5571;48.110;-1.706;2024-01-15T08:06:12;30.33;;;18.50;;
11034;SDS011;5571;48.110;-1.706;2024-01-15T08:08:38;31.10;;;20.77;;
11034;SDS011;5571;48.110;-1.706;2024-01-15T08:11:03;29.50;;;20.03;;
11034;SDS011;5571;48.110;-1.706;2024-01-15T08:13:29;32.87;;;21.00;;
11034;SDS011;5571;48.110;-1.706;2024-01-15T08:15:55;28.87;;;18.93;;
11034;SDS011;5571;48.110;-1.706;2024-01-15T08:18:21;31.07;;;19.83;;
11034;SDS011;5571;48.110;-1.706;2024-01-15T08:20:47;28.27;;;18.20;;
11034;SDS011;5571;48.110;-1.706;2024-01-15T08:23:12;27.83;;;19.47;;
11034;SDS011;5571;48.110;-1.706;2024-01-15T08:25:38;32.33;;;19.93;;
11034;SDS011;5571;48.110;-1.706;2024-01-15T08:28:04;28.77;;;19.17;;
11034;SDS011;5571;48.110;-1.706;2024-01-15T08:30:30;29.47;;;18.87;;
11034;SDS011;5571;48.110;-1.706;2024-01-15T08:32:56;25.17;;;17.10;;
11034;SDS011;5571;48.110;-1.706;2024-01-15T08:35:21;26.70;;;18.67;;
11034;SDS011;5571;48.110;-1.706;2024-01-15T08:37:50;25.17;;;16.90;;
11034;SDS011;5571;48.110;-1.706;2024-01-15T08:40:17;26.93;;;18.20;;
11034;SDS011;5571;48.110;-1.706;2024-01-15T08:42:43;27.47;;;17.90;;
11034;SDS011;5571;48.110;-1.706;2024-01-15T08:45:09;32.77;;;19.10;;
11034;SDS011;5571;48.110;-1.706;2024-01-15T08:47:35;28.17;;;18.07;;
11034;SDS011;5571;48.110;-1.706;2024-01-15T08:50:01;26.23;;;17.20;;
11034;SDS011;5571;48.110;-1.706;2024-01-15T08:52:28;26.60;;;17.67;;
11034;SDS011;5571;48.110;-1.706;2024-01-15T08:54:55;31.80;;;17.63;;
11034;SDS011;5571;48.110;-1.706;2024-01-15T08:57:24;25.60;;;17.10;;
11034;SDS011;5571;48.110;-1.706;2024-01-15T08:59:49;29.27;;;17.50;;
11034;SDS011;5571;48.110;-1.706;2024-01-15T09:02:16;29.83;;;17.60;;
11034;SDS011;5571;48.110;-1.706;2024-01-15T09:04:41;29.70;;;17.53;;
11034;SDS011;5571;48.110;-1.706;2024-01-15T09:07:07;29.00;;;18.97;;
11034;SDS011;5571;48.110;-1.706;2024-01-15T09:09:33;28.17;;;17.60;;
11034;SDS011;5571;48.110;-1.706;2024-01-15T09:12:00;23.93;;;16.83;;
11034;SDS011;5571;48.110;-1.706;2024-01-15T09:14:25;30.93;;;17.43;;
11034;SDS011;5571;48.110;-1.706;2024-01-15T09:16:52;29.13;;;17.83;;
11034;SDS011;5571;48.110;-1.706;2024-01-15T09:19:18;28.90;;;18.20;;
11034;SDS011;5571;48.110;-1.706;2024-01-15T09:21:44;32.00;;;18.33;;
11034;SDS011;5571;48.110;-1.706;2024-01-15T09:24:09;33.60;;;20.53;;
11034;SDS011;5571;48.110;-1.706;2024-01-15T09:26:35;33.40;;;20.03;;
11034;SDS011;5571;48.110;-1.706;2024-01-15T09:29:00;29.97;;;18.83;;
11034;SDS011;5571;48.110;-1.706;2024-01-15T09:31:27;31.10;;;19.50;;
11034;SDS011;5571;48.110;-1.706;2024-01-15T09:33:53;32.23;;;20.57;;
11034;SDS011;5571;48.110;-1.706;2024-01-15T09:36:21;29.67;;;19.27;;
11034;SDS011;5571;48.110;-1.706;2024-01-15T09:38:47;32.37;;;20.97;;
11034;SDS011;5571;48.110;-1.706;2024-01-15T09:41:13;32.10;;;20.47;;
11034;SDS011;5571;48.110;-1.706;2024-01-15T09:43:40;29.57;;;19.03;;
11034;SDS011;5571;48.110;-1.706;2024-01-15T09:46:06;31.97;;;19.13;;
11034;SDS011;5571;48.110;-1.706;2024-01-15T09:48:31;30.37;;;19.00;;
11034;SDS011;5571;48.110;-1.706;2024-01-15T09:50:59;27.33;;;18.17;;
11034;SDS011;5571;48.110;-1.706;2024-01-15T09:53:26;25.03;;;17.30;;
11034;SDS011;5571;48.110;-1.706;2024-01-15T09:55:52;27.17;;;17.30;;
11034;SDS011;5571;48.110;-1.706;2024-01-15T09:58:18;25.33;;;17.67;;
11034;SDS011;5571;48.110;-1.706;2024-01-15T10:00:45;21.50;;;14.73;;
11034;SDS011;5571;48.110;-1.706;2024-01-15T10:03:15;19.90;;;14.40;;
11034;SDS011;5571;48.110;-1.706;2024-01-15T10:05:40;20.37;;;14.00;;
11034;SDS011;5571;48.110;-1.706;2024-01-15T10:08:06;19.17;;;12.83;;
11034;SDS011;5571;48.110;-1.706;2024-01-15T10:10:32;19.80;;;12.80;;
11034;SDS011;5571;48.110;-1.706;2024-01-15T10:13:00;18.20;;;11.13;;
11034;SDS011;5571;48.110;-1.706;2024-01-15T10:15:26;15.10;;;11.10;;
11034;SDS011;5571;48.110;-1.706;2024-01-15T10:17:52;15.90;;;11.87;;
11034;SDS011;5571;48.110;-1.706;2024-01-15T10:20:18;15.03;;;10.60;;
11034;SDS011;5571;48.110;-1.706;2024-01-15T10:22:44;17.57;;;11.13;;
11034;SDS011;5571;48.110;-1.706;2024-01-15T10:25:14;16.30;;;10.20;;
11034;SDS011;5571;48.110;-1.706;2024-01-15T10:27:43;17.33;;;11.17;;
11034;SDS011;5571;48.110;-1.706;2024-01-15T10:30:09;14.13;;;10.13;;
11034;SDS011;5571;48.110;-1.706;2024-01-15T10:32:35;17.43;;;10.27;;
11034;SDS011;5571;48.110;-1.706;2024-01-15T10:35:01;17.70;;;9.70;;
11034;SDS011;5571;48.110;-1.706;2024-01-15T10:37:31;18.73;;;9.37;;
11034;SDS011;5571;48.110;-1.706;2024-01-15T10:39:58;13.83;;;8.53;;
11034;SDS011;5571;48.110;-1.706;2024-01-15T10:42:26;12.10;;;8.20;;
11034;SDS011;5571;48.110;-1.706;2024-01-15T10:44:51;16.93;;;8.33;;
11034;SDS011;5571;48.110;-1.706;2024-01-15T10:47:17;16.33;;;8.10;;
11034;SDS011;5571;48.110;-1.706;2024-01-15T10:49:44;9.03;;;7.03;;
11034;SDS011;5571;48.110;-1.706;2024-01-15T10:52:11;12.07;;;6.77;;
11034;SDS011;5571;48.110;-1.706;2024-01-15T10:54:37;14.50;;;7.50;;
11034;SDS011;5571;48.110;-1.706;2024-01-15T10:57:03;11.80;;;6.70;;
11034;SDS011;5571;48.110;-1.706;2024-01-15T10:59:30;11.97;;;7.30;;
11034;SDS011;5571;48.110;-1.706;2024-01-15T11:01:57;10.93;;;6.30;;
11034;SDS011;5571;48.110;-1.706;2024-01-15T11:04:24;9.97;;;6.23;;
11034;SDS011;5571;48.110;-1.706;2024-01-15T11:06:53;8.77;;;6.00;;
11034;SDS011;5571;48.110;-1.706;2024-01-15T11:09:19;13.67;;;6.50;;
11034;SDS011;5571;48.110;-1.706;2024-01-15T11:11:45;11.43;;;6.47;;
11034;SDS011;5571;48.110;-1.706;2024-01-15T11:14:33;10.33;;;6.57;;
11034;SDS011;5571;48.110;-1.706;2024-01-15T11:17:04;10.50;;;6.40;;
11034;SDS011;5571;48.110;-1.706;2024-01-15T11:19:47;10.20;;;6.40;;
11034;SDS011;5571;48.110;-1.706;2024-01-15T11:25:03;9.43;;;6.40;;
11034;SDS011;5571;48.110;-1.706;2024-01-15T11:30:16;11.33;;;6.03;;
11034;SDS011;5571;48.110;-1.706;2024-01-15T11:32:42;7.90;;;5.00;;
11034;SDS011;5571;48.110;-1.706;2024-01-15T11:35:08;6.17;;;5.00;;
11034;SDS011;5571;48.110;-1.706;2024-01-15T11:40:19;6.43;;;4.40;;
11034;SDS011;5571;48.110;-1.706;2024-01-15T11:42:46;9.27;;;4.80;;
11034;SDS011;5571;48.110;-1.706;2024-01-15T11:45:13;4.77;;;4.00;;
11034;SDS011;5571;48.110;-1.706;2024-01-15T11:50:18;5.67;;;4.43;;
11034;SDS011;5571;48.110;-1.706;2024-01-15T11:52:47;8.87;;;4.70;;
11034;SDS011;5571;48.110;-1.706;2024-01-15T11:55:31;6.53;;;4.83;;
11034;SDS011;5571;48.110;-1.706;2024-01-15T11:58:00;10.13;;;4.90;;
11034;SDS011;5571;48.110;-1.706;2024-01-15T12:00:30;6.83;;;5.10;;
11034;SDS011;5571;48.110;-1.706;2024-01-15T12:02:58;8.43;;;5.10;;
11034;SDS011;5571;48.110;-1.706;2024-01-15T12:05:23;14.60;;;5.80;;
11034;SDS011;5571;48.110;-1.706;2024-01-15T12:07:49;8.80;;;5.70;;
11034;SDS011;5571;48.110;-1.706;2024-01-15T12:10:16;9.97;;;5.57;;
11034;SDS011;5571;48.110;-1.706;2024-01-15T12:15:26;9.07;;;5.33;;
11034;SDS011;5571;48.110;-1.706;2024-01-15T12:17:56;7.23;;;5.63;;
11034;SDS011;5571;48.110;-1.706;2024-01-15T12:20:23;10.17;;;5.83;;
11034;SDS011;5571;48.110;-1.706;2024-01-15T12:22:50;9.03;;;5.47;;
11034;SDS011;5571;48.110;-1.706;2024-01-15T12:25:15;7.77;;;5.00;;
11034;SDS011;5571;48.110;-1.706;2024-01-15T12:27:41;8.67;;;4.97;;
11034;SDS011;5571;48.110;-1.706;2024-01-15T12:30:07;6.73;;;4.70;;
11034;SDS011;5571;48.110;-1.706;2024-01-15T12:32:36;6.97;;;5.13;;
11034;SDS011;5571;48.110;-1.706;2024-01-15T12:35:02;6.57;;;4.70;;
11034;SDS011;5571;48.110;-1.706;2024-01-15T12:37:29;8.43;;;5.10;;
11034;SDS011;5571;48.110;-1.706;2024-01-15T12:39:55;8.47;;;5.63;;
11034;SDS011;5571;48.110;-1.706;2024-01-15T12:42:21;8.30;;;5.50;;
11034;SDS011;5571;48.110;-1.706;2024-01-15T12:44:46;7.20;;;5.93;;
11034;SDS011;5571;48.110;-1.706;2024-01-15T12:47:12;9.13;;;5.53;;
11034;SDS011;5571;48.110;-1.706;2024-01-15T12:49:39;8.23;;;5.17;;
11034;SDS011;5571;48.110;-1.706;2024-01-15T12:52:07;8.00;;;5.57;;
11034;SDS011;5571;48.110;-1.706;2024-01-15T12:54:34;8.73;;;6.10;;
11034;SDS011;5571;48.110;-1.706;2024-01-15T12:57:00;8.33;;;5.73;;
11034;SDS011;5571;48.110;-1.706;2024-01-15T12:59:25;7.67;;;4.10;;
11034;SDS011;5571;48.110;-1.706;2024-01-15T13:01:51;3.63;;;3.27;;
11034;SDS011;5571;48.110;-1.706;2024-01-15T13:04:23;3.70;;;2.93;;
11034;SDS011;5571;48.110;-1.706;2024-01-15T13:06:50;4.53;;;2.97;;
11034;SDS011;5571;48.110;-1.706;2024-01-15T13:09:16;3.87;;;2.70;;
11034;SDS011;5571;48.110;-1.706;2024-01-15T13:11:43;3.83;;;2.47;;
11034;SDS011;5571;48.110;-1.706;2024-01-15T13:14:12;5.83;;;3.47;;
11034;SDS011;5571;48.110;-1.706;2024-01-15T13:16:40;3.10;;;2.70;;
11034;SDS011;5571;48.110;-1.706;2024-01-15T13:19:07;3.20;;;2.80;;
11034;SDS011;5571;48.110;-1.706;2024-01-15T13:21:34;4.97;;;2.83;;
11034;SDS011;5571;48.110;-1.706;2024-01-15T13:23:59;6.10;;;2.60;;
11034;SDS011;5571;48.110;-1.706;2024-01-15T13:26:25;7.00;;;2.77;;
11034;SDS011;5571;48.110;-1.706;2024-01-15T13:28:50;2.57;;;2.37;;
11034;SDS011;5571;48.110;-1.706;2024-01-15T13:31:16;5.73;;;2.80;;
11034;SDS011;5571;48.110;-1.706;2024-01-15T13:33:42;5.13;;;2.87;;
11034;SDS011;5571;48.110;-1.706;2024-01-15T13:36:07;5.80;;;2.97;;
11034;SDS011;5571;48.110;-1.706;2024-01-15T13:38:35;6.23;;;2.50;;
11034;SDS011;5571;48.110;-1.706;2024-01-15T13:41:03;2.70;;;2.40;;
11034;SDS011;5571;48.110;-1.706;2024-01-15T13:43:32;3.37;;;3.07;;
11034;SDS011;5571;48.110;-1.706;2024-01-15T13:45:58;7.80;;;3.37;;
11034;SDS011;5571;48.110;-1.706;2024-01-15T13:48:25;6.50;;;3.30;;
11034;SDS011;5571;48.110;-1.706;2024-01-15T13:50:51;5.93;;;3.47;;
11034;SDS011;5571;48.110;-1.706;2024-01-15T13:53:17;4.13;;;3.20;;
11034;SDS011;5571;48.110;-1.706;2024-01-15T13:55:44;4.63;;;3.07;;
11034;SDS011;5571;48.110;-1.706;2024-01-15T13:58:09;7.13;;;3.20;;
11034;SDS011;5571;48.110;-1.706;2024-01-15T14:00:35;4.67;;;2.97;;
11034;SDS011;5571;48.110;-1.706;2024-01-15T14:03:01;3.27;;;2.77;;
11034;SDS011;5571;48.110;-1.706;2024-01-15T14:05:27;4.87;;;3.07;;
11034;SDS011;5571;48.110;-1.706;2024-01-15T14:07:53;4.47;;;2.40;;
11034;SDS011;5571;48.110;-1.706;2024-01-15T14:10:18;5.17;;;2.50;;
11034;SDS011;5571;48.110;-1.706;2024-01-15T14:12:44;3.10;;;2.50;;
11034;SDS011;5571;48.110;-1.706;2024-01-15T14:15:11;6.17;;;2.50;;
11034;SDS011;5571;48.110;-1.706;2024-01-15T14:17:37;5.30;;;2.23;;
11034;SDS011;5571;48.110;-1.706;2024-01-15T14:20:03;3.13;;;2.10;;
11034;SDS011;5571;48.110;-1.706;2024-01-15T14:22:30;4.27;;;2.30;;
11034;SDS011;5571;48.110;-1.706;2024-01-15T14:24:56;3.37;;;2.50;;
11034;SDS011;5571;48.110;-1.706;2024-01-15T14:27:21;3.80;;;2.77;;
11034;SDS011;5571;48.110;-1.706;2024-01-15T14:29:47;3.30;;;2.47;;
11034;SDS011;5571;48.110;-1.706;2024-01-15T14:32:12;5.10;;;2.50;;
11034;SDS011;5571;48.110;-1.706;2024-01-15T14:34:38;3.87;;;2.20;;
11034;SDS011;5571;48.110;-1.706;2024-01-15T14:37:03;4.37;;;2.50;;